Time,TemperatureF,DewpointF,PressureIn,WindDirection,WindDirectionDegrees,WindSpeedMPH,WindSpeedGustMPH,Humidity,HourlyPrecipIn,Conditions,Clouds,dailyrainin,SoftwareType,DateUTC
2013-03-10 00:00:00,43.3,24.4,30.22,ESE,118,0.0,0.0,47,0.00,,,0.00,VWS V14.01,2013-03-10 05:00:00,
2013-03-10 00:01:00,43.3,24.4,30.22,ESE,118,0.0,1.0,47,0.00,,,0.00,VWS V14.01,2013-03-10 05:01:00,
2013-03-10 00:02:00,43.3,24.4,30.22,ESE,118,0.0,1.0,47,0.00,,,0.00,VWS V14.01,2013-03-10 05:02:00,
2013-03-10 00:07:00,43.4,24.0,30.22,SE,145,3.0,3.0,46,0.00,,,0.00,VWS V14.01,2013-03-10 05:07:00,
2013-03-10 00:12:00,43.8,24.4,30.21,SE,145,0.0,3.0,46,0.00,,,0.00,VWS V14.01,2013-03-10 05:12:00,
2013-03-10 00:17:00,43.8,24.4,30.21,SE,145,0.0,3.0,46,0.00,,,0.00,VWS V14.01,2013-03-10 05:17:00,
2013-03-10 00:22:00,43.3,25.9,30.21,SE,145,0.0,3.0,50,0.00,,,0.00,VWS V14.01,2013-03-10 05:22:00,
2013-03-10 00:27:00,42.0,26.6,30.21,SE,145,0.0,3.0,54,0.00,,,0.00,VWS V14.01,2013-03-10 05:27:00,
2013-03-10 00:32:00,40.9,26.9,30.21,SE,145,1.0,1.0,57,0.00,,,0.00,VWS V14.01,2013-03-10 05:32:00,
2013-03-10 00:37:00,40.0,26.4,30.21,SE,145,0.0,1.0,58,0.00,,,0.00,VWS V14.01,2013-03-10 05:37:00,
2013-03-10 00:42:00,39.6,26.5,30.20,SE,145,0.0,1.0,59,0.00,,,0.00,VWS V14.01,2013-03-10 05:42:00,
2013-03-10 00:47:00,39.4,26.3,30.20,SE,145,0.0,1.0,59,0.00,,,0.00,VWS V14.01,2013-03-10 05:47:00,
2013-03-10 00:52:00,39.7,25.3,30.20,SE,145,0.0,2.0,56,0.00,,,0.00,VWS V14.01,2013-03-10 05:52:00,
2013-03-10 00:57:00,40.3,25.0,30.20,SE,145,0.0,2.0,54,0.00,,,0.00,VWS V14.01,2013-03-10 05:57:00,
2013-03-10 01:02:00,41.0,25.2,30.20,SE,145,0.0,0.0,53,0.00,,,0.00,VWS V14.01,2013-03-10 06:02:00,
2013-03-10 01:07:00,41.7,24.9,30.20,SE,145,0.0,0.0,51,0.00,,,0.00,VWS V14.01,2013-03-10 06:07:00,
2013-03-10 01:12:00,42.4,25.1,30.20,SE,145,0.0,0.0,50,0.00,,,0.00,VWS V14.01,2013-03-10 06:12:00,
2013-03-10 01:17:00,42.9,25.1,30.20,SE,145,0.0,0.0,49,0.00,,,0.00,VWS V14.01,2013-03-10 06:17:00,
2013-03-10 01:22:00,43.2,24.9,30.21,SE,145,0.0,0.0,48,0.00,,,0.00,VWS V14.01,2013-03-10 06:22:00,
2013-03-10 01:27:00,43.4,25.0,30.20,SE,145,0.0,0.0,48,0.00,,,0.00,VWS V14.01,2013-03-10 06:27:00,
2013-03-10 01:32:00,43.5,24.6,30.21,SE,145,0.0,0.0,47,0.00,,,0.00,VWS V14.01,2013-03-10 06:32:00,
2013-03-10 01:38:00,43.5,24.6,30.20,SE,145,0.0,0.0,47,0.00,,,0.00,VWS V14.01,2013-03-10 06:38:00,
2013-03-10 01:43:00,43.4,24.5,30.20,SE,145,0.0,0.0,47,0.00,,,0.00,VWS V14.01,2013-03-10 06:43:00,
2013-03-10 01:48:00,43.1,24.8,30.19,SE,145,0.0,0.0,48,0.00,,,0.00,VWS V14.01,2013-03-10 06:48:00,
2013-03-10 01:53:00,42.7,24.4,30.19,SE,145,0.0,0.0,48,0.00,,,0.00,VWS V14.01,2013-03-10 06:53:00,
2013-03-10 01:58:00,42.5,24.2,30.19,SE,145,0.0,0.0,48,0.00,,,0.00,VWS V14.01,2013-03-10 06:58:00,
2013-03-10 03:03:00,42.3,24.5,30.19,SE,145,0.0,0.0,49,0.00,,,0.00,VWS V14.01,2013-03-10 07:03:00,
2013-03-10 03:08:00,42.2,24.4,30.19,SE,145,0.0,0.0,49,0.00,,,0.00,VWS V14.01,2013-03-10 07:08:00,
2013-03-10 03:13:00,42.3,24.5,30.19,SE,145,0.0,0.0,49,0.00,,,0.00,VWS V14.01,2013-03-10 07:13:00,
2013-03-10 03:18:00,42.4,24.6,30.19,SE,145,0.0,0.0,49,0.00,,,0.00,VWS V14.01,2013-03-10 07:18:00,
2013-03-10 03:23:00,42.2,24.4,30.18,SE,145,1.0,1.0,49,0.00,,,0.00,VWS V14.01,2013-03-10 07:23:00,
2013-03-10 03:28:00,41.7,24.5,30.18,SE,145,0.0,1.0,50,0.00,,,0.00,VWS V14.01,2013-03-10 07:28:00,
2013-03-10 03:33:00,41.2,24.5,30.18,SE,145,0.0,0.0,51,0.00,,,0.00,VWS V14.01,2013-03-10 07:33:00,
2013-03-10 03:38:00,40.6,24.8,30.18,SE,145,0.0,0.0,53,0.00,,,0.00,VWS V14.01,2013-03-10 07:38:00,
2013-03-10 03:44:00,40.4,24.6,30.17,SE,145,0.0,0.0,53,0.00,,,0.00,VWS V14.01,2013-03-10 07:44:00,
2013-03-10 03:49:00,40.4,24.6,30.17,SE,145,0.0,1.0,53,0.00,,,0.00,VWS V14.01,2013-03-10 07:49:00,
2013-03-10 03:54:00,40.3,25.0,30.17,SE,145,0.0,1.0,54,0.00,,,0.00,VWS V14.01,2013-03-10 07:54:00,
2013-03-10 03:59:00,40.2,25.8,30.17,SE,145,0.0,1.0,56,0.00,,,0.00,VWS V14.01,2013-03-10 07:59:00,
2013-03-10 04:04:00,39.7,26.1,30.16,SE,145,0.0,0.0,58,0.00,,,0.00,VWS V14.01,2013-03-10 08:04:00,
2013-03-10 04:09:00,39.4,24.6,30.17,SE,145,0.0,0.0,55,0.00,,,0.00,VWS V14.01,2013-03-10 08:09:00,
2013-03-10 04:14:00,39.8,24.5,30.16,SE,145,1.0,1.0,54,0.00,,,0.00,VWS V14.01,2013-03-10 08:14:00,
2013-03-10 04:19:00,40.8,25.5,30.15,SE,145,0.0,2.0,54,0.00,,,0.00,VWS V14.01,2013-03-10 08:19:00,
2013-03-10 04:24:00,41.0,26.1,30.16,SE,145,0.0,2.0,55,0.00,,,0.00,VWS V14.01,2013-03-10 08:24:00,
2013-03-10 04:29:00,40.6,25.3,30.16,SE,145,0.0,2.0,54,0.00,,,0.00,VWS V14.01,2013-03-10 08:29:00,
2013-03-10 04:34:00,40.7,24.9,30.16,SE,145,0.0,0.0,53,0.00,,,0.00,VWS V14.01,2013-03-10 08:34:00,
2013-03-10 04:39:00,41.1,24.8,30.15,SE,145,0.0,2.0,52,0.00,,,0.00,VWS V14.01,2013-03-10 08:39:00,
2013-03-10 04:45:00,41.5,24.7,30.16,SE,145,0.0,2.0,51,0.00,,,0.00,VWS V14.01,2013-03-10 08:45:00,
2013-03-10 04:50:00,41.8,24.5,30.16,SE,145,0.0,2.0,50,0.00,,,0.00,VWS V14.01,2013-03-10 08:50:00,
2013-03-10 04:55:00,42.0,24.7,30.16,SE,145,0.0,2.0,50,0.00,,,0.00,VWS V14.01,2013-03-10 08:55:00,
2013-03-10 05:00:00,42.2,24.4,30.15,SE,145,0.0,0.0,49,0.00,,,0.00,VWS V14.01,2013-03-10 09:00:00,
2013-03-10 05:05:00,42.3,24.5,30.15,SE,145,0.0,0.0,49,0.00,,,0.00,VWS V14.01,2013-03-10 09:05:00,
2013-03-10 05:10:00,42.4,24.6,30.15,SE,145,0.0,0.0,49,0.00,,,0.00,VWS V14.01,2013-03-10 09:10:00,
2013-03-10 05:15:00,42.4,24.6,30.15,SE,145,0.0,0.0,49,0.00,,,0.00,VWS V14.01,2013-03-10 09:15:00,
2013-03-10 05:20:00,42.2,24.9,30.15,SE,145,0.0,0.0,50,0.00,,,0.00,VWS V14.01,2013-03-10 09:20:00,
2013-03-10 05:25:00,42.0,24.7,30.16,SE,145,0.0,0.0,50,0.00,,,0.00,VWS V14.01,2013-03-10 09:25:00,
2013-03-10 05:30:00,41.9,24.6,30.16,SE,145,0.0,0.0,50,0.00,,,0.00,VWS V14.01,2013-03-10 09:30:00,
2013-03-10 05:35:00,42.0,24.7,30.17,SE,145,0.0,0.0,50,0.00,,,0.00,VWS V14.01,2013-03-10 09:35:00,
2013-03-10 05:40:00,42.1,24.8,30.16,SE,145,0.0,0.0,50,0.00,,,0.00,VWS V14.01,2013-03-10 09:40:00,
2013-03-10 05:45:00,42.3,24.5,30.16,SE,145,0.0,0.0,49,0.00,,,0.00,VWS V14.01,2013-03-10 09:45:00,
2013-03-10 05:51:00,42.5,24.7,30.16,SE,145,0.0,0.0,49,0.00,,,0.00,VWS V14.01,2013-03-10 09:51:00,
2013-03-10 05:56:00,42.6,24.8,30.17,SE,145,0.0,0.0,49,0.00,,,0.00,VWS V14.01,2013-03-10 09:56:00,
2013-03-10 06:01:00,42.7,24.4,30.17,SE,145,0.0,0.0,48,0.00,,,0.00,VWS V14.01,2013-03-10 10:01:00,
2013-03-10 06:06:00,42.7,24.4,30.17,SE,145,0.0,0.0,48,0.00,,,0.00,VWS V14.01,2013-03-10 10:06:00,
2013-03-10 06:11:00,42.7,24.4,30.17,SE,145,0.0,0.0,48,0.00,,,0.00,VWS V14.01,2013-03-10 10:11:00,
2013-03-10 06:16:00,42.6,24.3,30.16,SE,145,0.0,0.0,48,0.00,,,0.00,VWS V14.01,2013-03-10 10:16:00,
2013-03-10 06:21:00,42.1,24.8,30.17,SE,145,0.0,2.0,50,0.00,,,0.00,VWS V14.01,2013-03-10 10:21:00,
2013-03-10 06:26:00,41.6,23.9,30.17,SE,145,0.0,2.0,49,0.00,,,0.00,VWS V14.01,2013-03-10 10:26:00,
2013-03-10 06:31:00,41.8,24.1,30.16,SE,145,0.0,0.0,49,0.00,,,0.00,VWS V14.01,2013-03-10 10:31:00,
2013-03-10 06:36:00,42.4,24.6,30.16,SE,145,0.0,2.0,49,0.00,,,0.00,VWS V14.01,2013-03-10 10:36:00,
2013-03-10 06:41:00,42.6,24.3,30.16,SE,145,0.0,2.0,48,0.00,,,0.00,VWS V14.01,2013-03-10 10:41:00,
2013-03-10 06:46:00,42.7,24.9,30.16,SE,145,0.0,2.0,49,0.00,,,0.00,VWS V14.01,2013-03-10 10:46:00,
2013-03-10 06:51:00,42.7,24.9,30.16,SE,145,0.0,2.0,49,0.00,,,0.00,VWS V14.01,2013-03-10 10:51:00,
2013-03-10 06:56:00,42.7,25.9,30.16,SE,145,0.0,2.0,51,0.00,,,0.00,VWS V14.01,2013-03-10 10:56:00,
2013-03-10 07:02:00,42.3,26.4,30.16,SE,145,0.0,2.0,53,0.00,,,0.00,VWS V14.01,2013-03-10 11:02:00,
2013-03-10 07:07:00,41.6,25.8,30.17,SE,145,0.0,2.0,53,0.00,,,0.00,VWS V14.01,2013-03-10 11:07:00,
2013-03-10 07:12:00,41.1,25.7,30.17,SE,145,0.0,2.0,54,0.00,,,0.00,VWS V14.01,2013-03-10 11:12:00,
2013-03-10 07:17:00,40.9,26.0,30.16,SE,145,0.0,2.0,55,0.00,,,0.00,VWS V14.01,2013-03-10 11:17:00,
2013-03-10 07:22:00,41.0,25.2,30.16,SE,145,1.0,2.0,53,0.00,,,0.00,VWS V14.01,2013-03-10 11:22:00,
2013-03-10 07:27:00,41.2,25.4,30.16,SE,145,0.0,2.0,53,0.00,,,0.00,VWS V14.01,2013-03-10 11:27:00,
2013-03-10 07:32:00,41.4,25.1,30.16,SE,145,0.0,1.0,52,0.00,,,0.00,VWS V14.01,2013-03-10 11:32:00,
2013-03-10 07:37:00,41.8,24.5,30.17,SE,145,0.0,1.0,50,0.00,,,0.00,VWS V14.01,2013-03-10 11:37:00,
2013-03-10 07:42:00,42.4,25.6,30.17,SE,145,1.0,2.0,51,0.00,,,0.00,VWS V14.01,2013-03-10 11:42:00,
2013-03-10 07:47:00,42.2,26.3,30.16,SE,145,0.0,2.0,53,0.00,,,0.00,VWS V14.01,2013-03-10 11:47:00,
2013-03-10 07:52:00,41.7,25.9,30.16,SE,145,0.0,2.0,53,0.00,,,0.00,VWS V14.01,2013-03-10 11:52:00,
2013-03-10 07:57:00,41.4,25.1,30.17,SE,145,0.0,2.0,52,0.00,,,0.00,VWS V14.01,2013-03-10 11:57:00,
2013-03-10 08:02:00,41.4,25.1,30.17,SE,145,0.0,0.0,52,0.00,,,0.00,VWS V14.01,2013-03-10 12:02:00,
2013-03-10 08:07:00,41.7,24.9,30.17,SE,145,0.0,0.0,51,0.00,,,0.00,VWS V14.01,2013-03-10 12:07:00,
2013-03-10 08:12:00,42.0,24.7,30.17,SE,145,0.0,0.0,50,0.00,,,0.00,VWS V14.01,2013-03-10 12:12:00,
2013-03-10 08:17:00,42.4,25.1,30.17,SE,145,0.0,0.0,50,0.00,,,0.00,VWS V14.01,2013-03-10 12:17:00,
2013-03-10 08:22:00,42.4,25.6,30.18,SE,145,0.0,2.0,51,0.00,,,0.00,VWS V14.01,2013-03-10 12:22:00,
2013-03-10 08:27:00,42.2,26.3,30.18,SE,145,1.0,2.0,53,0.00,,,0.00,VWS V14.01,2013-03-10 12:27:00,
2013-03-10 08:32:00,41.7,29.7,30.18,SE,145,0.0,0.0,62,0.00,,,0.00,VWS V14.01,2013-03-10 12:32:00,
2013-03-10 08:38:00,40.7,30.2,30.18,SE,145,0.0,1.0,66,0.00,,,0.00,VWS V14.01,2013-03-10 12:38:00,
2013-03-10 08:43:00,39.6,29.9,30.18,SE,145,1.0,2.0,68,0.00,,,0.00,VWS V14.01,2013-03-10 12:43:00,
2013-03-10 08:48:00,38.9,30.0,30.18,SE,145,0.0,2.0,70,0.00,,,0.00,VWS V14.01,2013-03-10 12:48:00,
2013-03-10 08:53:00,38.7,30.1,30.18,SE,145,0.0,2.0,71,0.00,,,0.00,VWS V14.01,2013-03-10 12:53:00,
2013-03-10 08:58:00,38.8,30.2,30.18,SE,145,0.0,2.0,71,0.00,,,0.00,VWS V14.01,2013-03-10 12:58:00,
2013-03-10 09:03:00,39.0,30.8,30.19,SE,145,0.0,0.0,72,0.00,,,0.00,VWS V14.01,2013-03-10 13:03:00,
2013-03-10 09:08:00,39.5,31.9,30.18,SE,145,0.0,0.0,74,0.00,,,0.00,VWS V14.01,2013-03-10 13:08:00,
2013-03-10 09:13:00,40.1,32.8,30.18,SE,145,0.0,1.0,75,0.00,,,0.00,VWS V14.01,2013-03-10 13:13:00,
2013-03-10 09:18:00,41.1,33.5,30.18,SE,145,0.0,1.0,74,0.00,,,0.00,VWS V14.01,2013-03-10 13:18:00,
2013-03-10 09:23:00,41.9,33.9,30.18,SE,145,1.0,2.0,73,0.00,,,0.00,VWS V14.01,2013-03-10 13:23:00,
2013-03-10 09:29:00,42.5,33.8,30.17,SE,145,1.0,3.0,71,0.00,,,0.00,VWS V14.01,2013-03-10 13:29:00,
2013-03-10 09:34:00,42.9,32.7,30.17,SE,145,0.0,1.0,67,0.00,,,0.00,VWS V14.01,2013-03-10 13:34:00,
2013-03-10 09:39:00,43.3,32.3,30.17,SE,145,0.0,2.0,65,0.00,,,0.00,VWS V14.01,2013-03-10 13:39:00,
2013-03-10 09:44:00,43.8,30.4,30.18,SE,145,1.0,2.0,59,0.00,,,0.00,VWS V14.01,2013-03-10 13:44:00,
2013-03-10 09:49:00,44.5,31.5,30.18,SE,145,1.0,2.0,60,0.00,,,0.00,VWS V14.01,2013-03-10 13:49:00,
2013-03-10 09:54:00,45.1,32.5,30.18,SE,145,0.0,2.0,61,0.00,,,0.00,VWS V14.01,2013-03-10 13:54:00,
2013-03-10 09:59:00,45.5,31.6,30.18,SE,145,0.0,2.0,58,0.00,,,0.00,VWS V14.01,2013-03-10 13:59:00,
2013-03-10 10:04:00,46.1,30.9,30.18,SE,145,0.0,1.0,55,0.00,,,0.00,VWS V14.01,2013-03-10 14:04:00,
2013-03-10 10:09:00,47.1,31.3,30.19,ESE,115,2.0,3.0,54,0.00,,,0.00,VWS V14.01,2013-03-10 14:09:00,
2013-03-10 10:14:00,48.5,31.2,30.19,SW,225,3.0,4.0,51,0.00,,,0.00,VWS V14.01,2013-03-10 14:14:00,
2013-03-10 10:20:00,49.9,31.0,30.18,SW,219,4.0,6.0,48,0.00,,,0.00,VWS V14.01,2013-03-10 14:20:00,
2013-03-10 10:25:00,50.9,30.9,30.19,SSE,155,2.0,6.0,46,0.00,,,0.00,VWS V14.01,2013-03-10 14:25:00,
2013-03-10 10:30:00,52.1,30.9,30.19,South,174,2.0,3.0,44,0.00,,,0.00,VWS V14.01,2013-03-10 14:30:00,
2013-03-10 10:35:00,52.9,32.2,30.18,SSE,165,4.0,5.0,45,0.00,,,0.00,VWS V14.01,2013-03-10 14:35:00,
2013-03-10 10:40:00,53.7,31.8,30.18,SE,144,0.0,7.0,43,0.00,,,0.00,VWS V14.01,2013-03-10 14:40:00,
2013-03-10 10:45:00,54.2,31.0,30.18,SSW,200,4.0,7.0,41,0.00,,,0.00,VWS V14.01,2013-03-10 14:45:00,
2013-03-10 10:50:00,54.4,31.2,30.18,South,190,3.0,7.0,41,0.00,,,0.00,VWS V14.01,2013-03-10 14:50:00,
2013-03-10 10:56:00,54.9,31.7,30.18,SSE,159,5.0,8.0,41,0.00,,,0.00,VWS V14.01,2013-03-10 14:56:00,
2013-03-10 11:01:00,55.8,31.9,30.18,East,96,5.0,8.0,40,0.00,,,0.00,VWS V14.01,2013-03-10 15:01:00,
2013-03-10 11:06:00,56.7,33.3,30.18,SSE,166,3.0,8.0,41,0.00,,,0.00,VWS V14.01,2013-03-10 15:06:00,
2013-03-10 11:11:00,57.6,32.8,30.17,South,175,2.0,9.0,39,0.00,,,0.00,VWS V14.01,2013-03-10 15:11:00,
2013-03-10 11:16:00,58.0,32.6,30.17,SSE,161,2.0,9.0,38,0.00,,,0.00,VWS V14.01,2013-03-10 15:16:00,
2013-03-10 11:21:00,58.5,32.3,30.17,SE,142,3.0,9.0,37,0.00,,,0.00,VWS V14.01,2013-03-10 15:21:00,
2013-03-10 11:26:00,58.9,32.7,30.17,SSE,162,3.0,9.0,37,0.00,,,0.00,VWS V14.01,2013-03-10 15:26:00,
2013-03-10 11:31:00,59.4,33.8,30.17,SSE,165,3.0,6.0,38,0.00,,,0.00,VWS V14.01,2013-03-10 15:31:00,
2013-03-10 11:37:00,59.8,32.1,30.17,SSW,205,7.0,7.0,35,0.00,,,0.00,VWS V14.01,2013-03-10 15:37:00,
2013-03-10 11:42:00,60.0,33.0,30.17,South,171,6.0,7.0,36,0.00,,,0.00,VWS V14.01,2013-03-10 15:42:00,
2013-03-10 11:47:00,60.5,32.0,30.17,South,178,3.0,7.0,34,0.00,,,0.00,VWS V14.01,2013-03-10 15:47:00,
2013-03-10 11:52:00,60.6,32.8,30.17,SW,223,2.0,7.0,35,0.00,,,0.00,VWS V14.01,2013-03-10 15:52:00,
2013-03-10 11:57:00,60.7,32.2,30.17,SSE,151,0.0,7.0,34,0.00,,,0.00,VWS V14.01,2013-03-10 15:57:00,
2013-03-10 12:02:00,61.0,32.5,30.17,South,170,0.0,6.0,34,0.00,,,0.00,VWS V14.01,2013-03-10 16:02:00,
2013-03-10 12:07:00,61.9,31.7,30.17,SSE,160,6.0,6.0,32,0.00,,,0.00,VWS V14.01,2013-03-10 16:07:00,
2013-03-10 12:12:00,62.5,32.3,30.17,SW,215,5.0,7.0,32,0.00,,,0.00,VWS V14.01,2013-03-10 16:12:00,
2013-03-10 12:17:00,62.9,33.4,30.17,SSW,202,2.0,7.0,33,0.00,,,0.00,VWS V14.01,2013-03-10 16:17:00,
2013-03-10 12:22:00,63.4,35.3,30.16,SSW,193,4.0,7.0,35,0.00,,,0.00,VWS V14.01,2013-03-10 16:22:00,
2013-03-10 12:27:00,63.5,33.9,30.16,WSW,248,4.0,8.0,33,0.00,,,0.00,VWS V14.01,2013-03-10 16:27:00,
2013-03-10 12:32:00,63.8,33.4,30.16,SW,225,5.0,8.0,32,0.00,,,0.00,VWS V14.01,2013-03-10 16:32:00,
2013-03-10 12:37:00,63.5,33.9,30.16,SW,227,7.0,9.0,33,0.00,,,0.00,VWS V14.01,2013-03-10 16:37:00,
2013-03-10 12:42:00,63.0,31.9,30.16,SSW,196,7.0,9.0,31,0.00,,,0.00,VWS V14.01,2013-03-10 16:42:00,
2013-03-10 12:47:00,62.8,33.3,30.16,SW,221,5.0,9.0,33,0.00,,,0.00,VWS V14.01,2013-03-10 16:47:00,
2013-03-10 12:53:00,63.0,31.9,30.16,SSW,193,3.0,9.0,31,0.00,,,0.00,VWS V14.01,2013-03-10 16:53:00,
2013-03-10 12:58:00,63.3,32.2,30.15,SW,229,8.0,9.0,31,0.00,,,0.00,VWS V14.01,2013-03-10 16:58:00,
2013-03-10 13:03:00,63.7,32.5,30.15,SW,226,6.0,8.0,31,0.00,,,0.00,VWS V14.01,2013-03-10 17:03:00,
2013-03-10 13:08:00,64.2,33.0,30.15,WSW,250,0.0,8.0,31,0.00,,,0.00,VWS V14.01,2013-03-10 17:08:00,
2013-03-10 13:13:00,64.9,32.8,30.14,WNW,288,5.0,9.0,30,0.00,,,0.00,VWS V14.01,2013-03-10 17:13:00,
2013-03-10 13:18:00,65.2,34.6,30.13,SE,132,3.0,9.0,32,0.00,,,0.00,VWS V14.01,2013-03-10 17:18:00,
2013-03-10 13:23:00,66.0,33.7,30.13,SSE,168,3.0,9.0,30,0.00,,,0.00,VWS V14.01,2013-03-10 17:23:00,
2013-03-10 13:28:00,66.3,33.1,30.13,SW,227,0.0,9.0,29,0.00,,,0.00,VWS V14.01,2013-03-10 17:28:00,
2013-03-10 13:33:00,66.4,33.2,30.13,South,171,0.0,6.0,29,0.00,,,0.00,VWS V14.01,2013-03-10 17:33:00,
2013-03-10 13:38:00,66.7,34.3,30.13,ESE,111,3.0,6.0,30,0.00,,,0.00,VWS V14.01,2013-03-10 17:38:00,
2013-03-10 13:43:00,67.3,33.1,30.12,SSE,154,1.0,8.0,28,0.00,,,0.00,VWS V14.01,2013-03-10 17:43:00,
2013-03-10 13:48:00,67.0,33.7,30.12,SE,145,0.0,8.0,29,0.00,,,0.00,VWS V14.01,2013-03-10 17:48:00,
2013-03-10 13:53:00,67.4,33.2,30.12,SE,129,2.0,8.0,28,0.00,,,0.00,VWS V14.01,2013-03-10 17:53:00,
2013-03-10 13:58:00,67.7,35.2,30.11,SE,128,5.0,8.0,30,0.00,,,0.00,VWS V14.01,2013-03-10 17:58:00,
2013-03-10 14:03:00,68.2,33.9,30.11,SE,132,3.0,7.0,28,0.00,,,0.00,VWS V14.01,2013-03-10 18:03:00,
2013-03-10 14:08:00,68.4,34.0,30.10,SE,138,1.0,7.0,28,0.00,,,0.00,VWS V14.01,2013-03-10 18:08:00,
2013-03-10 14:13:00,68.4,34.0,30.10,SW,222,7.0,7.0,28,0.00,,,0.00,VWS V14.01,2013-03-10 18:13:00,
2013-03-10 14:18:00,68.4,34.0,30.10,SE,145,0.0,8.0,28,0.00,,,0.00,VWS V14.01,2013-03-10 18:18:00,
2013-03-10 14:23:00,68.6,35.1,30.10,SSE,160,5.0,8.0,29,0.00,,,0.00,VWS V14.01,2013-03-10 18:23:00,
2013-03-10 14:29:00,68.6,33.3,30.09,SE,143,1.0,8.0,27,0.00,,,0.00,VWS V14.01,2013-03-10 18:29:00,
2013-03-10 14:34:00,69.1,35.5,30.09,SSW,205,3.0,5.0,29,0.00,,,0.00,VWS V14.01,2013-03-10 18:34:00,
2013-03-10 14:39:00,69.3,33.0,30.09,SE,142,7.0,11.0,26,0.00,,,0.00,VWS V14.01,2013-03-10 18:39:00,
2013-03-10 14:44:00,69.2,33.8,30.09,South,191,0.0,11.0,27,0.00,,,0.00,VWS V14.01,2013-03-10 18:44:00,
2013-03-10 14:49:00,69.3,34.8,30.08,South,180,7.0,11.0,28,0.00,,,0.00,VWS V14.01,2013-03-10 18:49:00,
2013-03-10 14:54:00,69.4,33.1,30.08,SSE,150,7.0,11.0,26,0.00,,,0.00,VWS V14.01,2013-03-10 18:54:00,
2013-03-10 14:59:00,69.2,32.9,30.08,SW,226,4.0,11.0,26,0.00,,,0.00,VWS V14.01,2013-03-10 18:59:00,
2013-03-10 15:04:00,69.5,35.0,30.08,SE,133,2.0,5.0,28,0.00,,,0.00,VWS V14.01,2013-03-10 19:04:00,
2013-03-10 15:09:00,69.9,33.5,30.08,ESE,121,3.0,8.0,26,0.00,,,0.00,VWS V14.01,2013-03-10 19:09:00,
2013-03-10 15:14:00,70.2,32.8,30.07,SE,135,8.0,11.0,25,0.00,,,0.00,VWS V14.01,2013-03-10 19:14:00,
2013-03-10 15:19:00,70.1,33.7,30.07,ENE,67,3.0,11.0,26,0.00,,,0.00,VWS V14.01,2013-03-10 19:19:00,
2013-03-10 15:24:00,70.3,32.8,30.07,SE,136,4.0,11.0,25,0.00,,,0.00,VWS V14.01,2013-03-10 19:24:00,
2013-03-10 15:29:00,70.3,34.8,30.06,East,99,2.0,11.0,27,0.00,,,0.00,VWS V14.01,2013-03-10 19:29:00,
2013-03-10 15:34:00,70.3,32.8,30.06,SSE,153,7.0,12.0,25,0.00,,,0.00,VWS V14.01,2013-03-10 19:34:00,
2013-03-10 15:39:00,70.3,32.8,30.06,SE,142,2.0,12.0,25,0.00,,,0.00,VWS V14.01,2013-03-10 19:39:00,
2013-03-10 15:44:00,70.5,33.0,30.06,SSE,167,4.0,12.0,25,0.00,,,0.00,VWS V14.01,2013-03-10 19:44:00,
2013-03-10 15:50:00,70.9,32.3,30.05,SE,126,4.0,12.0,24,0.00,,,0.00,VWS V14.01,2013-03-10 19:50:00,
2013-03-10 15:55:00,71.2,34.6,30.05,South,171,0.0,12.0,26,0.00,,,0.00,VWS V14.01,2013-03-10 19:55:00,
2013-03-10 16:00:00,71.3,32.7,30.05,SW,219,7.0,8.0,24,0.00,,,0.00,VWS V14.01,2013-03-10 20:00:00,
2013-03-10 16:05:00,71.5,32.8,30.05,South,180,12.0,12.0,24,0.00,,,0.00,VWS V14.01,2013-03-10 20:05:00,
2013-03-10 16:10:00,71.5,32.8,30.05,SSW,209,5.0,12.0,24,0.00,,,0.00,VWS V14.01,2013-03-10 20:10:00,
2013-03-10 16:15:00,71.7,32.0,30.05,SSW,207,2.0,12.0,23,0.00,,,0.00,VWS V14.01,2013-03-10 20:15:00,
2013-03-10 16:20:00,71.8,34.1,30.05,SE,124,0.0,12.0,25,0.00,,,0.00,VWS V14.01,2013-03-10 20:20:00,
2013-03-10 16:25:00,71.9,33.2,30.05,SE,130,1.0,12.0,24,0.00,,,0.00,VWS V14.01,2013-03-10 20:25:00,
2013-03-10 16:30:00,71.7,33.0,30.05,SSE,150,0.0,7.0,24,0.00,,,0.00,VWS V14.01,2013-03-10 20:30:00,
2013-03-10 16:35:00,71.6,34.9,30.05,South,172,4.0,7.0,26,0.00,,,0.00,VWS V14.01,2013-03-10 20:35:00,
2013-03-10 16:40:00,71.6,35.9,30.04,East,98,5.0,7.0,27,0.00,,,0.00,VWS V14.01,2013-03-10 20:40:00,
2013-03-10 16:45:00,71.5,33.9,30.04,SE,140,3.0,7.0,25,0.00,,,0.00,VWS V14.01,2013-03-10 20:45:00,
2013-03-10 16:51:00,71.6,34.0,30.04,SSE,157,6.0,7.0,25,0.00,,,0.00,VWS V14.01,2013-03-10 20:51:00,
2013-03-10 16:56:00,71.5,34.8,30.03,South,176,1.0,8.0,26,0.00,,,0.00,VWS V14.01,2013-03-10 20:56:00,
2013-03-10 17:01:00,71.3,34.7,30.03,SSE,164,4.0,7.0,26,0.00,,,0.00,VWS V14.01,2013-03-10 21:01:00,
2013-03-10 17:07:00,71.3,33.7,30.02,East,100,5.0,11.0,25,0.00,,,0.00,VWS V14.01,2013-03-10 21:07:00,
2013-03-10 17:12:00,71.0,34.4,30.02,East,91,3.0,11.0,26,0.00,,,0.00,VWS V14.01,2013-03-10 21:12:00,
2013-03-10 17:17:00,70.7,35.1,30.02,ENE,69,0.0,11.0,27,0.00,,,0.00,VWS V14.01,2013-03-10 21:17:00,
2013-03-10 17:22:00,70.4,33.9,30.02,ESE,111,3.0,11.0,26,0.00,,,0.00,VWS V14.01,2013-03-10 21:22:00,
2013-03-10 17:27:00,70.3,33.8,30.01,SE,125,7.0,15.0,26,0.00,,,0.00,VWS V14.01,2013-03-10 21:27:00,
2013-03-10 17:32:00,70.3,33.8,30.01,East,96,8.0,10.0,26,0.00,,,0.00,VWS V14.01,2013-03-10 21:32:00,
2013-03-10 17:37:00,70.4,33.9,30.01,ESE,103,9.0,15.0,26,0.00,,,0.00,VWS V14.01,2013-03-10 21:37:00,
2013-03-10 17:42:00,69.7,34.3,30.01,SE,131,8.0,15.0,27,0.00,,,0.00,VWS V14.01,2013-03-10 21:42:00,
2013-03-10 17:47:00,69.1,34.7,30.01,SE,143,5.0,15.0,28,0.00,,,0.00,VWS V14.01,2013-03-10 21:47:00,
2013-03-10 17:52:00,68.4,34.0,30.01,ESE,123,4.0,15.0,28,0.00,,,0.00,VWS V14.01,2013-03-10 21:52:00,
2013-03-10 17:58:00,67.7,33.5,30.00,ESE,107,11.0,15.0,28,0.00,,,0.00,VWS V14.01,2013-03-10 21:58:00,
2013-03-10 18:03:00,67.2,33.0,30.01,ESE,116,5.0,8.0,28,0.00,,,0.00,VWS V14.01,2013-03-10 22:03:00,
2013-03-10 18:08:00,66.8,33.5,30.01,ESE,102,3.0,11.0,29,0.00,,,0.00,VWS V14.01,2013-03-10 22:08:00,
2013-03-10 18:13:00,66.4,33.2,30.02,ESE,105,5.0,11.0,29,0.00,,,0.00,VWS V14.01,2013-03-10 22:13:00,
2013-03-10 18:18:00,66.1,33.8,30.02,East,96,3.0,11.0,30,0.00,,,0.00,VWS V14.01,2013-03-10 22:18:00,
2013-03-10 18:23:00,65.9,32.8,30.02,SE,142,3.0,11.0,29,0.00,,,0.00,VWS V14.01,2013-03-10 22:23:00,
2013-03-10 18:28:00,65.7,33.5,30.02,East,84,5.0,11.0,30,0.00,,,0.00,VWS V14.01,2013-03-10 22:28:00,
2013-03-10 18:33:00,65.4,34.0,30.03,SE,140,1.0,11.0,31,0.00,,,0.00,VWS V14.01,2013-03-10 22:33:00,
2013-03-10 18:38:00,65.3,33.1,30.03,ESE,102,2.0,11.0,30,0.00,,,0.00,VWS V14.01,2013-03-10 22:38:00,
2013-03-10 18:43:00,65.2,33.0,30.03,East,84,7.0,11.0,30,0.00,,,0.00,VWS V14.01,2013-03-10 22:43:00,
2013-03-10 18:48:00,65.1,33.7,30.03,SE,144,0.0,11.0,31,0.00,,,0.00,VWS V14.01,2013-03-10 22:48:00,
2013-03-10 18:53:00,65.0,33.7,30.03,SE,146,5.0,11.0,31,0.00,,,0.00,VWS V14.01,2013-03-10 22:53:00,
2013-03-10 18:58:00,64.8,33.5,30.03,SE,138,3.0,11.0,31,0.00,,,0.00,VWS V14.01,2013-03-10 22:58:00,
2013-03-10 19:03:00,64.7,34.2,30.03,ESE,109,2.0,4.0,32,0.00,,,0.00,VWS V14.01,2013-03-10 23:03:00,
2013-03-10 19:08:00,64.4,33.9,30.03,East,80,3.0,7.0,32,0.00,,,0.00,VWS V14.01,2013-03-10 23:08:00,
2013-03-10 19:13:00,64.1,33.7,30.03,ESE,108,0.0,7.0,32,0.00,,,0.00,VWS V14.01,2013-03-10 23:13:00,
2013-03-10 19:19:00,63.9,33.5,30.03,ESE,115,3.0,7.0,32,0.00,,,0.00,VWS V14.01,2013-03-10 23:19:00,
2013-03-10 19:24:00,63.6,33.2,30.03,ESE,104,1.0,7.0,32,0.00,,,0.00,VWS V14.01,2013-03-10 23:24:00,
2013-03-10 19:29:00,63.3,33.0,30.03,East,98,5.0,7.0,32,0.00,,,0.00,VWS V14.01,2013-03-10 23:29:00,
2013-03-10 19:34:00,63.1,32.8,30.04,SE,137,1.0,4.0,32,0.00,,,0.00,VWS V14.01,2013-03-10 23:34:00,
2013-03-10 19:39:00,62.9,33.4,30.04,SE,144,3.0,6.0,33,0.00,,,0.00,VWS V14.01,2013-03-10 23:39:00,
2013-03-10 19:44:00,62.6,33.1,30.03,ESE,103,3.0,6.0,33,0.00,,,0.00,VWS V14.01,2013-03-10 23:44:00,
2013-03-10 19:49:00,62.4,32.9,30.04,SE,128,0.0,6.0,33,0.00,,,0.00,VWS V14.01,2013-03-10 23:49:00,
2013-03-10 19:54:00,62.3,32.9,30.03,ESE,111,1.0,6.0,33,0.00,,,0.00,VWS V14.01,2013-03-10 23:54:00,
2013-03-10 19:59:00,62.1,32.7,30.04,ESE,120,0.0,6.0,33,0.00,,,0.00,VWS V14.01,2013-03-10 23:59:00,
2013-03-10 20:04:00,61.9,33.2,30.04,ESE,119,0.0,4.0,34,0.00,,,0.00,VWS V14.01,2013-03-11 00:04:00,
2013-03-10 20:09:00,61.6,33.0,30.04,ESE,108,3.0,5.0,34,0.00,,,0.00,VWS V14.01,2013-03-11 00:09:00,
2013-03-10 20:14:00,61.3,32.7,30.04,SE,146,0.0,5.0,34,0.00,,,0.00,VWS V14.01,2013-03-11 00:14:00,
2013-03-10 20:19:00,61.1,32.5,30.04,East,94,5.0,7.0,34,0.00,,,0.00,VWS V14.01,2013-03-11 00:19:00,
2013-03-10 20:24:00,60.9,32.4,30.04,East,96,2.0,7.0,34,0.00,,,0.00,VWS V14.01,2013-03-11 00:24:00,
2013-03-10 20:29:00,60.8,32.3,30.03,ESE,109,3.0,7.0,34,0.00,,,0.00,VWS V14.01,2013-03-11 00:29:00,
2013-03-10 20:34:00,60.6,32.8,30.04,East,95,5.0,5.0,35,0.00,,,0.00,VWS V14.01,2013-03-11 00:34:00,
2013-03-10 20:39:00,60.5,32.0,30.04,SSE,150,1.0,8.0,34,0.00,,,0.00,VWS V14.01,2013-03-11 00:39:00,
2013-03-10 20:45:00,60.2,32.5,30.04,East,98,9.0,9.0,35,0.00,,,0.00,VWS V14.01,2013-03-11 00:45:00,
2013-03-10 20:50:00,60.2,32.5,30.04,ESE,119,3.0,9.0,35,0.00,,,0.00,VWS V14.01,2013-03-11 00:50:00,
2013-03-10 20:55:00,60.0,32.3,30.03,ESE,105,3.0,9.0,35,0.00,,,0.00,VWS V14.01,2013-03-11 00:55:00,
2013-03-10 21:00:00,59.8,32.8,30.03,ESE,102,1.0,3.0,36,0.00,,,0.00,VWS V14.01,2013-03-11 01:00:00,
2013-03-10 21:05:00,59.6,32.6,30.03,ESE,105,0.0,6.0,36,0.00,,,0.00,VWS V14.01,2013-03-11 01:05:00,
2013-03-10 21:10:00,59.5,32.5,30.03,SE,138,2.0,6.0,36,0.00,,,0.00,VWS V14.01,2013-03-11 01:10:00,
2013-03-10 21:15:00,59.3,32.4,30.03,SE,139,0.0,6.0,36,0.00,,,0.00,VWS V14.01,2013-03-11 01:15:00,
2013-03-10 21:20:00,59.1,32.2,30.03,ESE,110,4.0,6.0,36,0.00,,,0.00,VWS V14.01,2013-03-11 01:20:00,
2013-03-10 21:25:00,59.0,32.1,30.03,East,90,3.0,8.0,36,0.00,,,0.00,VWS V14.01,2013-03-11 01:25:00,
2013-03-10 21:30:00,59.1,32.9,30.03,ESE,105,2.0,7.0,37,0.00,,,0.00,VWS V14.01,2013-03-11 01:30:00,
2013-03-10 21:35:00,59.0,32.8,30.03,SSE,158,3.0,8.0,37,0.00,,,0.00,VWS V14.01,2013-03-11 01:35:00,
2013-03-10 21:41:00,58.9,32.7,30.04,SE,140,0.0,8.0,37,0.00,,,0.00,VWS V14.01,2013-03-11 01:41:00,
2013-03-10 21:46:00,58.7,32.5,30.03,SE,129,1.0,9.0,37,0.00,,,0.00,VWS V14.01,2013-03-11 01:46:00,
2013-03-10 21:51:00,58.6,32.4,30.03,East,98,3.0,9.0,37,0.00,,,0.00,VWS V14.01,2013-03-11 01:51:00,
2013-03-10 21:56:00,58.6,32.4,30.03,SE,144,0.0,9.0,37,0.00,,,0.00,VWS V14.01,2013-03-11 01:56:00,
2013-03-10 22:01:00,58.4,32.2,30.03,East,95,3.0,5.0,37,0.00,,,0.00,VWS V14.01,2013-03-11 02:01:00,
2013-03-10 22:06:00,58.3,32.8,30.03,SE,128,5.0,5.0,38,0.00,,,0.00,VWS V14.01,2013-03-11 02:06:00,
2013-03-10 22:11:00,58.1,32.7,30.02,East,97,2.0,6.0,38,0.00,,,0.00,VWS V14.01,2013-03-11 02:11:00,
2013-03-10 22:17:00,58.0,32.6,30.02,East,100,6.0,6.0,38,0.00,,,0.00,VWS V14.01,2013-03-11 02:17:00,
2013-03-10 22:22:00,58.0,32.6,30.01,ENE,77,5.0,7.0,38,0.00,,,0.00,VWS V14.01,2013-03-11 02:22:00,
2013-03-10 22:27:00,58.0,32.6,30.01,ESE,117,2.0,9.0,38,0.00,,,0.00,VWS V14.01,2013-03-11 02:27:00,
2013-03-10 22:32:00,58.0,32.6,30.01,SE,141,3.0,5.0,38,0.00,,,0.00,VWS V14.01,2013-03-11 02:32:00,
2013-03-10 22:37:00,58.0,31.9,30.01,SE,128,3.0,8.0,37,0.00,,,0.00,VWS V14.01,2013-03-11 02:37:00,
2013-03-10 22:42:00,58.1,32.0,30.01,SE,130,1.0,8.0,37,0.00,,,0.00,VWS V14.01,2013-03-11 02:42:00,
2013-03-10 22:47:00,58.1,32.0,30.01,SE,145,5.0,8.0,37,0.00,,,0.00,VWS V14.01,2013-03-11 02:47:00,
2013-03-10 22:52:00,58.2,32.1,30.01,SSE,148,0.0,8.0,37,0.00,,,0.00,VWS V14.01,2013-03-11 02:52:00,
2013-03-10 22:57:00,58.2,32.1,30.02,SSE,148,8.0,8.0,37,0.00,,,0.00,VWS V14.01,2013-03-11 02:57:00,
2013-03-10 23:02:00,58.3,32.2,30.01,SE,135,0.0,3.0,37,0.00,,,0.00,VWS V14.01,2013-03-11 03:02:00,
2013-03-10 23:07:00,58.2,32.7,30.02,SSE,159,3.0,6.0,38,0.00,,,0.00,VWS V14.01,2013-03-11 03:07:00,
2013-03-10 23:12:00,58.2,32.1,30.02,SSW,203,2.0,7.0,37,0.00,,,0.00,VWS V14.01,2013-03-11 03:12:00,
2013-03-10 23:17:00,58.2,31.4,30.02,SE,137,4.0,8.0,36,0.00,,,0.00,VWS V14.01,2013-03-11 03:17:00,
2013-03-10 23:22:00,58.2,31.4,30.04,South,174,3.0,8.0,36,0.00,,,0.00,VWS V14.01,2013-03-11 03:22:00,
2013-03-10 23:28:00,58.2,32.1,30.04,SSW,196,4.0,10.0,37,0.00,,,0.00,VWS V14.01,2013-03-11 03:28:00,
2013-03-10 23:33:00,58.1,32.0,30.03,SSE,152,7.0,7.0,37,0.00,,,0.00,VWS V14.01,2013-03-11 03:33:00,
2013-03-10 23:38:00,58.0,31.9,30.02,South,179,0.0,7.0,37,0.00,,,0.00,VWS V14.01,2013-03-11 03:38:00,
2013-03-10 23:43:00,57.6,32.2,30.01,South,179,2.0,7.0,38,0.00,,,0.00,VWS V14.01,2013-03-11 03:43:00,
2013-03-10 23:48:00,57.2,31.8,30.02,SSE,163,0.0,7.0,38,0.00,,,0.00,VWS V14.01,2013-03-11 03:48:00,
2013-03-10 23:53:00,56.9,31.6,30.01,SSE,163,1.0,7.0,38,0.00,,,0.00,VWS V14.01,2013-03-11 03:53:00,
2013-03-10 23:58:00,56.8,32.1,30.02,SSE,163,2.0,7.0,39,0.00,,,0.00,VWS V14.01,2013-03-11 03:58:00,